Terminal Aerodrome Forecast
Issued by NWS

Home | Current Version | Previous Version | Text Only | Print | Product List | Glossary On
Versions: 1 2 3 4 5 6 7 8 9 10 11 12 13 14 15 16 17 18 19 20 21 22 23
737
FTUS41 KCAR 090539
TAFPQI
TAF
KPQI 090539Z 0906/1006 23006KT P6SM SCT025 BKN050
      TEMPO 0906/0910 5SM -SN OVC030
     FM091300 29007KT P6SM BKN050
     FM091700 30012G22KT P6SM BKN060
     FM092100 30011G21KT P6SM BKN040=

USA.gov is the U.S. government's official web portal to all federal, state and local government web resources and services.